Latest Weather Observations for Sellicks Hill

IDS60801

Issued at 9:05 am CST Friday 22 August 2014 (issued every 30 minutes, with the page automatically refreshed every 10 minutes)

About weather observations | Map of weather stations | Latest weather observations for SA | Other Formats
Station Details ID: 023886 Name: MOUNT TERRIBLE RADAR Lat: -35.33 Lon: 138.50 Height: 385.7 m
Data from the previous 72 hours. | See also: Recent months for locations in South Australia
Date/Time
CST
Temp
°C
App
Temp
°C
Dew
Point
Rel
Hum
%
Delta-T
°C
Wind Press
QNH
hPa
Press
MSL
hPa
Rain
since 9 am
mm
Dir
 
Spd
km/h
Gust
km/h
Spd
kts
Gust
kts
22/09:00am - - - - - NNE 7 20 4 11 - - -
22/08:30am - - - - - NNE 9 15 5 8 - - -
22/08:00am - - - - - NNE 7 19 4 10 - - -
22/07:30am - - - - - N 9 19 5 10 - - -
22/07:00am - - - - - NNE 15 26 8 14 - - -
22/06:30am - - - - - NNE 13 24 7 13 - - -
22/06:00am - - - - - NNE 15 33 8 18 - - -
22/05:30am - - - - - NNE 15 32 8 17 - - -
22/05:00am - - - - - NNE 15 37 8 20 - - -
22/04:30am - - - - - NNE 17 32 9 17 - - -
22/04:00am - - - - - NNE 17 30 9 16 - - -
22/03:30am - - - - - NNE 17 37 9 20 - - -
22/03:00am - - - - - NNE 17 28 9 15 - - -
22/02:30am - - - - - NNE 17 30 9 16 - - -
22/02:00am - - - - - NNE 15 30 8 16 - - -
22/01:30am - - - - - NNE 17 28 9 15 - - -
22/01:00am - - - - - NNE 15 33 8 18 - - -
22/12:30am - - - - - NNE 15 33 8 18 - - -
22/12:00am - - - - - NNE 17 33 9 18 - - -
 
Date/Time
CST
Temp
°C
App
Temp
°C
Dew
Point
Rel
Hum
%
Delta-T
°C
Wind Press
QNH
hPa
Press
MSL
hPa
Rain
since 9 am
mm
Dir
 
Spd
km/h
Gust
km/h
Spd
kts
Gust
kts
21/11:30pm - - - - - NE 13 26 7 14 - - -
21/11:00pm - - - - - NE 11 20 6 11 - - -
21/10:30pm - - - - - ENE 11 22 6 12 - - -
21/10:00pm - - - - - NE 11 28 6 15 - - -
21/09:30pm - - - - - NE 9 17 5 9 - - -
21/09:00pm - - - - - NE 11 17 6 9 - - -
21/08:30pm - - - - - NE 11 17 6 9 - - -
21/08:00pm - - - - - NE 9 15 5 8 - - -
21/07:30pm - - - - - ENE 9 15 5 8 - - -
21/07:00pm - - - - - E 13 19 7 10 - - -
21/06:30pm - - - - - E 15 19 8 10 - - -
21/06:00pm - - - - - E 13 19 7 10 - - -
21/05:30pm - - - - - E 11 17 6 9 - - -
21/05:00pm - - - - - E 7 13 4 7 - - -
21/04:30pm - - - - - NNW 2 6 1 3 - - -
21/04:00pm - - - - - N 4 7 2 4 - - -
21/03:30pm - - - - - NNW 4 9 2 5 - - -
21/03:00pm - - - - - NNW 6 9 3 5 - - -
21/02:30pm - - - - - N 4 11 2 6 - - -
21/02:00pm - - - - - N 6 9 3 5 - - -
21/01:30pm - - - - - N 6 9 3 5 - - -
21/01:00pm - - - - - NW 6 13 3 7 - - -
21/12:30pm - - - - - NNW 4 9 2 5 - - -
21/12:00pm - - - - - NNW 7 13 4 7 - - -
21/11:30am - - - - - NE 4 7 2 4 - - -
21/11:00am - - - - - N 4 11 2 6 - - -
21/10:30am - - - - - NE 4 7 2 4 - - -
21/10:00am - - - - - NNE 4 11 2 6 - - -
21/09:30am - - - - - NE 4 7 2 4 - - -
21/09:00am - - - - - E 6 9 3 5 - - -
21/08:30am - - - - - E 7 13 4 7 - - -
21/08:00am - - - - - E 15 20 8 11 - - -
21/07:30am - - - - - E 17 20 9 11 - - -
21/07:00am - - - - - E 11 19 6 10 - - -
21/06:30am - - - - - E 11 17 6 9 - - -
21/06:00am - - - - - E 11 19 6 10 - - -
21/05:30am - - - - - E 13 19 7 10 - - -
21/05:00am - - - - - E 15 22 8 12 - - -
21/04:30am - - - - - E 17 22 9 12 - - -
21/04:00am - - - - - E 19 28 10 15 - - -
21/03:30am - - - - - E 19 30 10 16 - - -
21/03:00am - - - - - E 19 28 10 15 - - -
21/02:30am - - - - - E 20 30 11 16 - - -
21/02:00am - - - - - E 22 30 12 16 - - -
21/01:30am - - - - - ESE 19 26 10 14 - - -
21/01:00am - - - - - ESE 19 28 10 15 - - -
21/12:30am - - - - - ESE 17 24 9 13 - - -
21/12:00am - - - - - ESE 19 24 10 13 - - -
 
Date/Time
CST
Temp
°C
App
Temp
°C
Dew
Point
Rel
Hum
%
Delta-T
°C
Wind Press
QNH
hPa
Press
MSL
hPa
Rain
since 9 am
mm
Dir
 
Spd
km/h
Gust
km/h
Spd
kts
Gust
kts
20/11:30pm - - - - - SE 20 28 11 15 - - -
20/11:00pm - - - - - SE 22 30 12 16 - - -
20/10:30pm - - - - - SE 24 32 13 17 - - -
20/10:00pm - - - - - SE 24 30 13 16 - - -
20/09:30pm - - - - - ESE 26 33 14 18 - - -
20/09:00pm - - - - - SE 24 30 13 16 - - -
20/08:30pm - - - - - SE 26 32 14 17 - - -
20/08:00pm - - - - - SE 24 28 13 15 - - -
20/07:30pm - - - - - SE 22 26 12 14 - - -
20/07:00pm - - - - - SE 22 28 12 15 - - -
20/06:30pm - - - - - SE 22 26 12 14 - - -
20/06:00pm - - - - - SE 20 24 11 13 - - -
20/05:30pm - - - - - SE 22 28 12 15 - - -
20/05:00pm - - - - - SE 20 28 11 15 - - -
20/04:30pm - - - - - SE 20 28 11 15 - - -
20/04:00pm - - - - - SSE 20 26 11 14 - - -
20/03:30pm - - - - - SSE 15 17 8 9 - - -
20/03:00pm - - - - - SE 15 22 8 12 - - -
20/02:30pm - - - - - SE 20 26 11 14 - - -
20/02:00pm - - - - - SSE 20 26 11 14 - - -
20/01:30pm - - - - - SE 17 22 9 12 - - -
20/01:00pm - - - - - ESE 7 13 4 7 - - -
20/12:30pm - - - - - E 9 15 5 8 - - -
20/12:00pm - - - - - E 11 19 6 10 - - -
20/11:30am - - - - - ESE 19 28 10 15 - - -
20/11:00am - - - - - ESE 19 28 10 15 - - -
20/10:30am - - - - - SE 20 28 11 15 - - -
20/10:00am - - - - - E 20 28 11 15 - - -
20/09:30am - - - - - E 22 35 12 19 - - -
20/09:00am - - - - - E 19 30 10 16 - - -
20/08:30am - - - - - ESE 19 30 10 16 - - -
20/08:00am - - - - - E 20 33 11 18 - - -
20/07:30am - - - - - ESE 22 28 12 15 - - -
20/07:00am - - - - - ESE 19 26 10 14 - - -
20/06:30am - - - - - ESE 20 28 11 15 - - -
20/06:00am - - - - - ESE 19 28 10 15 - - -
20/05:30am - - - - - ESE 19 26 10 14 - - -
20/05:00am - - - - - ESE 20 26 11 14 - - -
20/04:30am - - - - - ESE 20 26 11 14 - - -
20/04:00am - - - - - ESE 19 28 10 15 - - -
20/03:30am - - - - - ESE 17 24 9 13 - - -
20/03:00am - - - - - ESE 19 26 10 14 - - -
20/02:30am - - - - - ESE 9 17 5 9 - - -
20/02:00am - - - - - SE 11 13 6 7 - - -
20/01:30am - - - - - SE 13 15 7 8 - - -
20/01:00am - - - - - SSE 17 20 9 11 - - -
20/12:30am - - - - - SSE 20 24 11 13 - - -
20/12:00am - - - - - SSE 17 22 9 12 - - -
 
Date/Time
CST
Temp
°C
App
Temp
°C
Dew
Point
Rel
Hum
%
Delta-T
°C
Wind Press
QNH
hPa
Press
MSL
hPa
Rain
since 9 am
mm
Dir
 
Spd
km/h
Gust
km/h
Spd
kts
Gust
kts
19/11:30pm - - - - - SSE 17 20 9 11 - - -
19/11:00pm - - - - - SSE 19 28 10 15 - - -
19/10:30pm - - - - - SSE 15 19 8 10 - - -
19/10:00pm - - - - - SSE 13 17 7 9 - - -
19/09:30pm - - - - - SSE 17 20 9 11 - - -
19/09:00pm - - - - - SSE 15 20 8 11 - - -
19/08:30pm - - - - - SSE 13 15 7 8 - - -
19/08:00pm - - - - - SSE 13 15 7 8 - - -
19/07:30pm - - - - - S 11 13 6 7 - - -
19/07:00pm - - - - - S 7 11 4 6 - - -
19/06:30pm - - - - - SSE 13 17 7 9 - - -
19/06:00pm - - - - - SSE 20 26 11 14 - - -
19/05:30pm - - - - - SSE 19 26 10 14 - - -
19/05:00pm - - - - - SSE 19 22 10 12 - - -
19/04:30pm - - - - - SSE 24 28 13 15 - - -
19/04:00pm - - - - - SSE 19 26 10 14 - - -
19/03:30pm - - - - - SSE 24 30 13 16 - - -
19/03:00pm - - - - - SSE 19 24 10 13 - - -
19/02:30pm - - - - - SSE 22 30 12 16 - - -
19/02:00pm - - - - - SSE 22 28 12 15 - - -
19/01:30pm - - - - - SSE 20 26 11 14 - - -
19/01:00pm - - - - - SSE 22 30 12 16 - - -
19/12:30pm - - - - - SSE 19 28 10 15 - - -
19/12:00pm - - - - - SSE 19 26 10 14 - - -
19/11:30am - - - - - SSE 17 26 9 14 - - -
19/11:00am - - - - - SSE 20 28 11 15 - - -
19/10:30am - - - - - SE 17 24 9 13 - - -
19/10:00am - - - - - SE 15 20 8 11 - - -
19/09:30am - - - - - SE 13 17 7 9 - - -

Other Formats:

Comma delimited format used in spreadsheet applications
http://www.bom.gov.au/fwo/IDS60801/IDS60801.95679.axf

JavaScript Object Notation format (JSON) in row-major order
http://www.bom.gov.au/fwo/IDS60801/IDS60801.95679.json